Time;durP1;ratioP1;P1;durP2;ratioP2;P2;SDS_P1;SDS_P2;PMS_P1;PMS_P2;Temp;Humidity;BMP_temperature;BMP_pressure;BME280_temperature;BME280_humidity;BME280_pressure;Samples;Min_cycle;Max_cycle;Signal;HPM_P1;HPM_P2
2020/12/24 00:02:05;;;;;;;78.32;51.22;;;;;;;10.95;77.29;100914.38;4973146;28;98438;-65
2020/12/24 00:04:32;;;;;;;76.00;46.78;;;;;;;11.04;77.21;100894.91;4973647;28;96596;-64
2020/12/24 00:06:58;;;;;;;73.97;47.17;;;;;;;11.10;76.60;100886.81;4953067;28;96624;-65
2020/12/24 00:09:24;;;;;;;68.40;46.70;;;;;;;11.05;76.64;100896.59;4972666;28;98671;-65
2020/12/24 00:11:51;;;;;;;69.80;45.15;;;;;;;11.07;76.69;100904.34;4972460;28;98574;-65
2020/12/24 00:14:17;;;;;;;70.75;45.53;;;;;;;10.96;76.98;100892.59;4973157;28;96870;-64
2020/12/24 00:16:43;;;;;;;74.60;45.72;;;;;;;11.01;76.92;100895.03;4972706;28;96635;-64
2020/12/24 00:19:10;;;;;;;77.60;49.45;;;;;;;10.95;77.14;100893.53;4972464;28;98640;-65
2020/12/24 00:21:36;;;;;;;64.97;46.50;;;;;;;11.07;76.87;100889.53;4971407;28;99074;-65
2020/12/24 00:24:03;;;;;;;70.60;47.15;;;;;;;11.08;76.24;100886.06;4970634;28;97045;-65
2020/12/24 00:26:30;;;;;;;79.00;50.08;;;;;;;11.07;76.52;100888.69;4970509;28;97157;-65
2020/12/24 00:28:56;;;;;;;79.95;48.72;;;;;;;10.90;77.11;100892.84;4958529;28;98641;-65
2020/12/24 00:31:22;;;;;;;81.25;48.95;;;;;;;11.06;76.81;100882.63;4962004;28;98580;-65
2020/12/24 00:33:49;;;;;;;98.25;56.33;;;;;;;11.07;76.95;100867.81;4957681;28;100695;-65
2020/12/24 00:36:15;;;;;;;86.45;53.53;;;;;;;11.11;76.17;100872.00;4961087;28;100653;-65
2020/12/24 00:38:42;;;;;;;84.40;49.28;;;;;;;11.16;76.12;100863.06;4955970;28;98530;-65
2020/12/24 00:41:08;;;;;;;79.50;51.30;;;;;;;11.14;75.94;100864.06;4939792;28;98795;-65
2020/12/24 00:43:35;;;;;;;73.47;45.38;;;;;;;11.17;76.21;100858.69;4959586;28;97312;-64
2020/12/24 00:46:01;;;;;;;69.88;47.80;;;;;;;11.10;76.12;100854.66;4959219;28;97109;-65
2020/12/24 00:48:35;;;;;;;;;;;;;;;11.14;76.28;100849.25;4962333;28;98541;-64
2020/12/24 00:51:02;;;;;;;76.72;49.40;;;;;;;11.05;76.29;100854.00;4941462;28;100154;-65
2020/12/24 00:53:28;;;;;;;70.70;46.72;;;;;;;11.06;76.85;100840.03;4959567;28;97237;-65
2020/12/24 00:55:55;;;;;;;74.15;48.85;;;;;;;11.10;76.29;100828.56;4958114;28;97602;-65
2020/12/24 00:58:21;;;;;;;75.35;46.90;;;;;;;10.90;77.30;100851.13;4965143;28;98492;-64
2020/12/24 01:00:48;;;;;;;72.88;47.22;;;;;;;10.94;77.59;100857.91;4952660;28;98540;-65
2020/12/24 01:03:14;;;;;;;76.13;48.72;;;;;;;10.97;76.93;100825.63;4970663;28;96914;-65
2020/12/24 01:05:41;;;;;;;83.18;50.50;;;;;;;10.94;76.85;100831.84;4971510;28;96936;-64
2020/12/24 01:08:07;;;;;;;77.78;47.60;;;;;;;11.00;76.91;100846.38;4955104;28;98650;-64
2020/12/24 01:10:33;;;;;;;73.00;48.40;;;;;;;11.10;76.45;100823.34;4971419;28;98616;-66
2020/12/24 01:13:00;;;;;;;72.95;46.63;;;;;;;11.09;76.24;100819.06;4972673;28;96541;-65
2020/12/24 01:15:26;;;;;;;67.30;44.08;;;;;;;11.10;76.44;100820.75;4972743;28;96641;-65
2020/12/24 01:17:52;;;;;;;67.20;43.70;;;;;;;11.09;76.01;100816.44;4966534;28;98639;-64
2020/12/24 01:20:19;;;;;;;68.38;39.85;;;;;;;10.95;76.74;100836.13;4960858;28;98811;-64
2020/12/24 01:22:45;;;;;;;71.22;43.67;;;;;;;11.03;76.73;100814.97;4959454;28;98320;-64
2020/12/24 01:25:11;;;;;;;64.18;43.47;;;;;;;11.00;76.63;100804.63;4958125;28;96856;-64
2020/12/24 01:27:38;;;;;;;70.75;42.65;;;;;;;10.96;76.83;100818.72;4964154;28;98831;-64
2020/12/24 01:30:05;;;;;;;74.05;46.50;;;;;;;10.98;76.75;100817.75;4947746;28;98466;-64
2020/12/24 01:32:32;;;;;;;75.55;44.60;;;;;;;11.02;76.45;100808.88;4957882;28;97042;-64
2020/12/24 01:34:58;;;;;;;80.97;45.47;;;;;;;10.95;76.51;100803.97;4961116;28;97721;-64
2020/12/24 01:37:24;;;;;;;86.43;46.78;;;;;;;10.96;76.55;100801.31;4943306;28;98503;-64
2020/12/24 01:39:51;;;;;;;81.30;44.97;;;;;;;10.97;76.56;100802.16;4962217;28;98587;-64
2020/12/24 01:42:19;;;;;;;90.72;46.85;;;;;;;10.83;76.97;100794.94;4956919;28;99235;-64
2020/12/24 01:44:46;;;;;;;86.53;49.08;;;;;;;10.81;76.94;100786.31;4958240;28;97541;-64
2020/12/24 01:47:16;;;;;;;81.32;44.65;;;;;;;10.80;77.22;100792.44;4957617;28;98946;-64
2020/12/24 01:49:42;;;;;;;84.03;47.55;;;;;;;10.87;76.53;100780.00;4943551;28;99234;-64
2020/12/24 01:52:35;;;;;;;94.13;47.22;;;;;;;10.88;76.71;100766.03;4962675;28;97538;-64
2020/12/24 01:55:07;;;;;;;88.68;47.17;;;;;;;10.88;76.40;100764.28;4960107;28;97360;-64
2020/12/24 01:57:33;;;;;;;87.03;48.60;;;;;;;10.84;76.88;100770.53;4946025;28;97572;-64
2020/12/24 02:00:00;;;;;;;85.85;47.08;;;;;;;10.80;76.86;100768.97;4957974;28;99451;-65
2020/12/24 02:02:26;;;;;;;84.13;44.88;;;;;;;10.80;77.06;100766.34;4947369;28;97072;-64
2020/12/24 02:04:53;;;;;;;72.15;41.10;;;;;;;10.80;77.09;100763.75;4959229;28;96783;-64
2020/12/24 02:07:19;;;;;;;84.22;42.35;;;;;;;10.79;77.24;100763.81;4962761;28;98633;-63
2020/12/24 02:09:47;;;;;;;85.53;47.33;;;;;;;10.69;77.49;100745.09;4960966;28;98553;-63
2020/12/24 02:12:13;;;;;;;89.32;46.38;;;;;;;10.75;77.22;100721.38;4958479;28;99193;-65
2020/12/24 02:14:40;;;;;;;90.68;45.67;;;;;;;10.62;77.94;100730.66;4957292;28;97237;-64
2020/12/24 02:17:06;;;;;;;89.72;45.20;;;;;;;10.65;78.19;100730.50;4961450;28;98832;-65
2020/12/24 02:19:35;;;;;;;76.22;41.72;;;;;;;10.69;77.52;100729.47;4964528;28;98561;-64
2020/12/24 02:22:02;;;;;;;68.28;42.50;;;;;;;10.70;77.68;100712.91;4956683;28;96874;-65
2020/12/24 02:24:28;;;;;;;66.32;41.17;;;;;;;10.62;77.57;100717.59;4961464;28;97362;-64
2020/12/24 02:26:55;;;;;;;62.30;39.60;;;;;;;10.59;78.05;100700.31;4957232;28;98675;-64
2020/12/24 02:29:21;;;;;;;62.92;40.10;;;;;;;10.60;78.08;100701.16;4960366;28;98888;-64
2020/12/24 02:31:48;;;;;;;58.45;37.13;;;;;;;10.64;77.91;100702.75;4944747;28;97582;-65
2020/12/24 02:34:14;;;;;;;59.05;37.70;;;;;;;10.62;78.14;100695.00;4962046;28;97923;-64
2020/12/24 02:36:41;;;;;;;56.92;37.83;;;;;;;10.71;77.58;100688.53;4960622;28;99513;-64
2020/12/24 02:39:09;;;;;;;54.00;34.17;;;;;;;10.63;78.19;100674.97;4959090;28;98019;-64
2020/12/24 02:41:35;;;;;;;60.00;38.28;;;;;;;10.62;77.92;100662.88;4957111;28;97611;-62
2020/12/24 02:44:02;;;;;;;56.97;35.75;;;;;;;10.55;78.05;100657.06;4959036;28;97729;-63
2020/12/24 02:46:29;;;;;;;57.38;36.67;;;;;;;10.55;78.08;100661.44;4957121;28;99247;-64
2020/12/24 02:48:55;;;;;;;61.00;37.25;;;;;;;10.52;78.05;100665.00;4939178;28;98327;-64
2020/12/24 02:51:21;;;;;;;67.88;37.15;;;;;;;10.51;78.11;100663.31;4956150;28;97265;-64
2020/12/24 02:53:48;;;;;;;72.97;38.53;;;;;;;10.59;77.95;100663.81;4959448;28;98109;-64
2020/12/24 02:56:14;;;;;;;76.45;40.10;;;;;;;10.54;77.47;100644.94;4960536;28;98914;-64
2020/12/24 02:58:44;;;;;;;80.70;42.15;;;;;;;10.43;78.27;100634.97;4956515;28;98750;-64
2020/12/24 03:01:11;;;;;;;73.03;40.13;;;;;;;10.41;78.51;100657.66;4958018;28;100764;-64
2020/12/24 03:03:37;;;;;;;70.68;41.53;;;;;;;10.49;78.23;100642.53;4959142;28;96697;-64
2020/12/24 03:06:04;;;;;;;61.35;39.88;;;;;;;10.41;78.65;100639.41;4958921;28;98742;-64
2020/12/24 03:08:31;;;;;;;55.30;36.38;;;;;;;10.39;79.50;100628.22;4959474;28;98380;-64
2020/12/24 03:10:57;;;;;;;66.03;38.92;;;;;;;10.59;78.29;100629.94;4960864;28;96867;-65
2020/12/24 03:13:23;;;;;;;67.95;39.55;;;;;;;10.49;78.15;100619.09;4959599;28;97499;-64
2020/12/24 03:15:49;;;;;;;63.75;37.65;;;;;;;10.39;79.11;100616.94;4956938;28;100639;-64
2020/12/24 03:18:16;;;;;;;81.97;41.63;;;;;;;10.60;78.42;100602.09;4963104;28;98578;-64
2020/12/24 03:20:42;;;;;;;59.28;36.33;;;;;;;10.66;77.85;100609.69;4964182;28;96764;-64
2020/12/24 03:23:09;;;;;;;59.03;36.55;;;;;;;10.45;79.06;100569.75;4959160;28;97793;-64
2020/12/24 03:25:35;;;;;;;62.85;41.30;;;;;;;10.53;78.35;100572.03;4961854;28;98411;-64
2020/12/24 03:28:01;;;;;;;66.75;39.03;;;;;;;10.56;78.47;100580.56;4961257;28;98763;-64
2020/12/24 03:30:28;;;;;;;63.50;38.53;;;;;;;10.51;78.83;100592.09;4943931;28;96940;-64
2020/12/24 03:32:54;;;;;;;63.72;38.97;;;;;;;10.48;77.97;100588.69;4959463;28;97488;-64
2020/12/24 03:35:21;;;;;;;72.18;40.03;;;;;;;10.53;78.35;100609.34;4964618;28;98786;-64
2020/12/24 03:37:47;;;;;;;68.43;43.72;;;;;;;10.58;78.05;100599.56;4956979;28;100736;-64
2020/12/24 03:40:13;;;;;;;69.53;43.17;;;;;;;10.53;78.48;100595.47;4962881;28;97966;-64
2020/12/24 03:42:39;;;;;;;68.03;40.75;;;;;;;10.53;78.19;100574.63;4961305;28;99179;-64
2020/12/24 03:45:06;;;;;;;67.78;39.67;;;;;;;10.45;78.54;100562.78;4963032;28;98428;-64
2020/12/24 03:47:33;;;;;;;59.55;37.40;;;;;;;10.53;78.31;100567.66;4961891;28;98507;-64
2020/12/24 03:49:59;;;;;;;61.20;39.35;;;;;;;10.42;79.21;100578.56;4959287;28;96706;-64
2020/12/24 03:52:25;;;;;;;70.43;41.63;;;;;;;10.54;78.88;100565.88;4958163;28;100264;-64
2020/12/24 03:54:52;;;;;;;67.07;41.60;;;;;;;10.51;78.38;100551.25;4961904;28;98438;-64
2020/12/24 03:57:18;;;;;;;56.90;40.10;;;;;;;10.57;78.28;100556.19;4946376;28;98568;-64
2020/12/24 03:59:44;;;;;;;67.70;39.63;;;;;;;10.43;79.01;100562.00;4957452;28;97284;-64
2020/12/24 04:02:11;;;;;;;66.32;41.15;;;;;;;10.46;78.34;100561.03;4960848;28;97085;-64
2020/12/24 04:04:37;;;;;;;67.25;40.47;;;;;;;10.51;78.57;100572.09;4965025;28;98730;-64
2020/12/24 04:07:04;;;;;;;67.65;41.70;;;;;;;10.41;78.96;100574.25;4966994;28;101231;-64
2020/12/24 04:09:30;;;;;;;71.15;40.47;;;;;;;10.47;78.99;100576.59;4960429;28;96652;-64
2020/12/24 04:11:57;;;;;;;65.85;42.35;;;;;;;10.38;79.00;100582.19;4962167;28;97430;-64
2020/12/24 04:14:23;;;;;;;61.78;37.72;;;;;;;10.42;79.27;100568.13;4964767;28;98558;-64
2020/12/24 04:16:49;;;;;;;66.70;38.75;;;;;;;10.20;79.72;100569.94;4970738;28;98749;-64
2020/12/24 04:19:16;;;;;;;68.55;40.25;;;;;;;10.13;80.51;100563.31;4972077;28;96617;-63
2020/12/24 04:21:42;;;;;;;65.07;38.70;;;;;;;10.33;79.52;100552.88;4973261;28;96687;-63
2020/12/24 04:24:08;;;;;;;66.85;42.38;;;;;;;10.43;79.85;100537.69;4960114;28;98601;-63
2020/12/24 04:26:34;;;;;;;66.60;42.40;;;;;;;10.54;79.01;100534.59;4959227;28;99220;-63
2020/12/24 04:29:01;;;;;;;66.35;42.03;;;;;;;10.52;78.78;100526.88;4961895;28;99168;-64
2020/12/24 04:31:27;;;;;;;68.00;41.47;;;;;;;10.40;79.09;100525.66;4965067;28;97541;-63
2020/12/24 04:33:53;;;;;;;62.05;39.75;;;;;;;10.33;79.90;100531.19;4963443;28;98683;-64
2020/12/24 04:36:20;;;;;;;69.50;39.30;;;;;;;10.46;79.42;100528.00;4964888;28;97388;-63
2020/12/24 04:38:46;;;;;;;80.30;45.05;;;;;;;10.56;79.13;100518.00;4968553;28;96836;-63
2020/12/24 04:41:12;;;;;;;82.65;41.92;;;;;;;10.36;79.71;100531.06;4961851;28;96756;-63
2020/12/24 04:43:39;;;;;;;77.25;40.67;;;;;;;10.43;80.00;100506.41;4971919;28;98679;-63
2020/12/24 04:46:06;;;;;;;71.88;40.45;;;;;;;10.43;79.92;100499.44;4960819;28;99043;-63
2020/12/24 04:48:33;;;;;;;73.20;41.35;;;;;;;10.41;80.21;100509.09;4965085;28;97199;-64
2020/12/24 04:51:15;;;;;;;69.72;38.28;;;;;;;10.32;80.57;100501.69;4960155;28;96905;-64
2020/12/24 04:53:41;;;;;;;72.00;39.58;;;;;;;10.32;80.13;100501.69;4927173;28;97977;-64
2020/12/24 04:56:08;;;;;;;67.70;36.97;;;;;;;10.40;79.71;100499.59;4928268;28;99216;-64
2020/12/24 04:58:35;;;;;;;78.72;39.67;;;;;;;10.28;79.93;100486.25;4948126;28;97262;-64
2020/12/24 05:01:01;;;;;;;69.18;40.78;;;;;;;10.33;80.31;100492.94;4959983;28;99254;-65
2020/12/24 05:03:27;;;;;;;78.72;42.13;;;;;;;10.33;79.70;100485.13;4946490;28;98694;-65
2020/12/24 05:05:54;;;;;;;71.55;39.95;;;;;;;10.40;79.94;100475.31;4961223;28;98535;-65
2020/12/24 05:08:20;;;;;;;79.72;40.65;;;;;;;10.30;80.27;100479.25;4962451;28;99114;-65
2020/12/24 05:11:02;;;;;;;95.45;42.92;;;;;;;10.37;80.51;100472.81;4941223;28;98439;-64
2020/12/24 05:13:28;;;;;;;68.13;39.42;;;;;;;10.38;80.34;100479.72;4960365;28;98562;-63
2020/12/24 05:15:54;;;;;;;98.72;41.00;;;;;;;10.40;79.83;100465.72;4958778;28;98683;-65
2020/12/24 05:18:22;;;;;;;80.50;40.55;;;;;;;10.38;80.39;100482.31;4963154;28;98360;-65
2020/12/24 05:20:49;;;;;;;75.03;39.38;;;;;;;10.30;81.14;100487.91;4943769;28;98965;-65
2020/12/24 05:23:17;;;;;;;65.72;38.97;;;;;;;10.34;80.55;100479.03;4962434;28;98824;-64
2020/12/24 05:25:44;;;;;;;68.03;38.58;;;;;;;10.36;80.48;100490.22;4964476;28;98619;-65
2020/12/24 05:28:20;;;;;;;67.90;40.35;;;;;;;10.13;81.05;100469.53;4962114;28;97007;-65
2020/12/24 05:30:46;;;;;;;63.20;36.72;;;;;;;10.15;81.01;100489.38;4958952;28;97598;-64
2020/12/24 05:33:42;;;;;;;70.53;37.10;;;;;;;10.26;80.82;100475.91;4956600;28;97553;-65
2020/12/24 05:36:21;;;;;;;82.53;37.70;;;;;;;10.26;81.38;100464.66;4960477;28;98978;-65
2020/12/24 05:38:49;;;;;;;81.38;40.33;;;;;;;10.21;82.53;100459.59;4960053;28;98094;-64
2020/12/24 05:41:28;;;;;;;79.20;38.00;;;;;;;10.24;81.72;100459.53;4961572;28;98299;-65
2020/12/24 05:44:15;;;;;;;97.43;41.83;;;;;;;10.18;82.20;100459.75;4960179;28;100701;-64
2020/12/24 05:46:43;;;;;;;86.18;37.55;;;;;;;10.20;82.14;100450.09;4960552;28;98500;-65
2020/12/24 05:49:14;;;;;;;61.63;36.78;;;;;;;10.16;82.47;100451.16;4957784;28;97226;-65
2020/12/24 05:51:56;;;;;;;;;;;;;;;10.20;82.41;100452.72;4962521;28;96727;-65
2020/12/24 05:54:23;;;;;;;123.00;40.83;;;;;;;10.15;82.47;100457.28;4961575;28;98746;-65
2020/12/24 05:56:49;;;;;;;95.93;40.28;;;;;;;10.22;82.17;100449.09;4961455;28;100485;-64
2020/12/24 05:59:22;;;;;;;97.18;38.10;;;;;;;10.14;82.57;100453.00;4926692;28;97157;-65
2020/12/24 06:02:06;;;;;;;82.30;39.75;;;;;;;10.05;82.24;100443.81;4962582;28;98647;-64
2020/12/24 06:04:43;;;;;;;84.13;41.15;;;;;;;10.24;83.06;100438.69;4923811;28;98584;-64
2020/12/24 06:07:10;;;;;;;100.70;39.90;;;;;;;10.12;83.03;100423.53;4958288;28;98588;-64
2020/12/24 06:09:37;;;;;;;103.78;40.28;;;;;;;10.16;83.02;100432.91;4962359;28;96674;-64
2020/12/24 06:12:18;;;;;;;95.60;38.85;;;;;;;10.14;83.21;100422.56;4960890;28;97784;-64
2020/12/24 06:14:52;;;;;;;70.95;36.25;;;;;;;10.03;82.64;100418.78;4945484;28;99114;-64
2020/12/24 06:17:23;;;;;;;99.47;40.00;;;;;;;10.02;82.57;100414.50;4935145;28;98481;-64
2020/12/24 06:19:49;;;;;;;83.45;38.63;;;;;;;10.11;83.20;100419.25;4961409;28;96961;-64
2020/12/24 06:22:16;;;;;;;94.53;41.60;;;;;;;10.08;82.86;100412.44;4956270;28;96835;-65
2020/12/24 06:24:44;;;;;;;70.53;37.33;;;;;;;10.15;82.55;100426.03;4958011;28;97624;-63
2020/12/24 06:27:31;;;;;;;125.25;36.45;;;;;;;10.06;82.99;100423.81;4960989;28;98628;-64
2020/12/24 06:30:07;;;;;;;68.03;37.25;;;;;;;10.02;83.16;100428.34;4967433;28;96652;-65
2020/12/24 06:32:41;;;;;;;101.43;37.88;;;;;;;10.07;82.70;100420.34;4953403;28;96615;-64
2020/12/24 06:35:07;;;;;;;86.55;34.45;;;;;;;9.97;83.41;100414.69;4970178;28;98654;-65
2020/12/24 06:37:40;;;;;;;92.65;38.65;;;;;;;10.12;83.61;100410.53;4969924;28;98518;-65
2020/12/24 06:40:07;;;;;;;68.15;36.60;;;;;;;10.11;83.47;100406.22;4970376;28;96645;-64
2020/12/24 06:42:37;;;;;;;102.07;37.90;;;;;;;10.17;82.78;100390.31;4969678;28;96822;-64
2020/12/24 06:45:04;;;;;;;90.82;37.17;;;;;;;10.18;83.03;100395.47;4968576;28;98546;-64
2020/12/24 06:47:31;;;;;;;84.82;38.75;;;;;;;10.13;83.63;100394.00;4970314;28;98485;-64
2020/12/24 06:49:57;;;;;;;75.60;36.20;;;;;;;10.20;83.21;100384.97;4970029;28;96565;-64
2020/12/24 06:52:31;;;;;;;75.60;36.00;;;;;;;10.17;82.99;100379.91;4963695;28;97008;-65
2020/12/24 06:55:30;;;;;;;68.10;35.67;;;;;;;10.09;83.11;100392.44;4969070;28;98843;-65
2020/12/24 06:57:56;;;;;;;63.92;37.53;;;;;;;10.13;82.95;100384.44;4936429;28;98672;-65
2020/12/24 07:00:25;;;;;;;69.80;36.90;;;;;;;10.07;82.97;100378.66;4951768;28;96605;-65
2020/12/24 07:02:52;;;;;;;86.95;38.45;;;;;;;10.05;83.12;100375.25;4970266;28;96672;-61
2020/12/24 07:05:40;;;;;;;113.20;38.10;;;;;;;10.05;84.29;100375.25;4969066;28;98650;-64
2020/12/24 07:08:10;;;;;;;87.03;38.00;;;;;;;10.03;84.80;100361.47;4966558;28;98582;-60
2020/12/24 07:10:46;;;;;;;92.95;43.08;;;;;;;10.05;84.29;100354.44;4936172;28;96752;-64
2020/12/24 07:13:35;;;;;;;70.22;38.88;;;;;;;10.06;83.95;100356.94;4964974;28;96754;-61
2020/12/24 07:16:05;;;;;;;66.32;38.08;;;;;;;10.03;84.01;100358.88;4939638;28;844780;-60
2020/12/24 07:18:32;;;;;;;106.60;41.58;;;;;;;9.83;84.54;100358.00;4971284;28;97520;-61
2020/12/24 07:21:00;;;;;;;79.80;39.95;;;;;;;9.88;85.05;100358.66;4949526;28;97103;-64
2020/12/24 07:23:39;;;;;;;85.85;39.20;;;;;;;9.93;84.12;100356.69;4971170;28;98072;-64
2020/12/24 07:26:07;;;;;;;79.18;39.25;;;;;;;10.07;84.04;100356.06;4969843;28;98502;-63
2020/12/24 07:28:35;;;;;;;88.97;39.00;;;;;;;10.05;85.03;100357.88;4969930;28;98567;-64
2020/12/24 07:31:03;;;;;;;87.25;43.05;;;;;;;10.06;84.47;100353.50;4970864;28;96632;-64
2020/12/24 07:33:29;;;;;;;79.28;42.65;;;;;;;10.07;84.68;100363.88;4970415;28;96706;-67
2020/12/24 07:35:56;;;;;;;119.82;44.00;;;;;;;9.97;84.54;100363.44;4969906;28;98563;-68
2020/12/24 07:38:23;;;;;;;134.18;42.20;;;;;;;9.93;85.15;100372.31;4970288;28;98467;-68
2020/12/24 07:40:50;;;;;;;71.15;40.15;;;;;;;9.81;84.91;100377.22;4953436;28;96721;-68
2020/12/24 07:43:16;;;;;;;105.82;41.50;;;;;;;9.88;85.29;100374.28;4969692;28;96715;-68
2020/12/24 07:45:43;;;;;;;76.10;39.08;;;;;;;9.98;84.14;100375.53;4970475;28;98876;-68
2020/12/24 07:48:13;;;;;;;87.00;39.10;;;;;;;10.07;84.35;100379.50;4969856;28;98919;-68
2020/12/24 07:50:40;;;;;;;82.38;38.70;;;;;;;10.20;84.34;100371.94;4970753;28;96571;-67
2020/12/24 07:53:18;;;;;;;68.45;37.97;;;;;;;10.10;84.08;100376.75;4971108;28;96474;-68
2020/12/24 07:55:44;;;;;;;66.57;38.00;;;;;;;10.15;83.81;100392.16;4969952;28;98511;-67
2020/12/24 07:58:12;;;;;;;75.43;36.67;;;;;;;10.07;83.50;100389.91;4970262;28;98576;-67
2020/12/24 08:00:45;;;;;;;86.50;36.95;;;;;;;10.03;83.92;100374.50;4969679;28;97282;-68
2020/12/24 08:03:16;;;;;;;66.03;34.37;;;;;;;10.07;83.74;100369.09;4970565;28;96621;-68
2020/12/24 08:05:43;;;;;;;58.35;36.13;;;;;;;10.11;83.50;100374.97;4969311;28;98568;-67
2020/12/24 08:08:10;;;;;;;61.80;35.88;;;;;;;10.02;83.39;100375.41;4970559;28;98364;-64
2020/12/24 08:10:37;;;;;;;90.95;37.97;;;;;;;10.07;83.67;100369.09;4966598;28;97641;-65
2020/12/24 08:13:04;;;;;;;79.30;37.75;;;;;;;10.01;83.75;100373.69;4968641;28;97066;-66
2020/12/24 08:15:33;;;;;;;78.85;36.63;;;;;;;9.97;83.37;100363.44;4965423;28;98832;-63
2020/12/24 08:18:04;;;;;;;69.05;37.60;;;;;;;10.09;82.77;100371.59;4952604;28;97450;-66
2020/12/24 08:20:58;;;;;;;63.70;38.47;;;;;;;10.05;83.28;100367.44;4939217;28;97328;-65
2020/12/24 08:23:47;;;;;;;75.68;35.33;;;;;;;10.05;83.09;100365.69;4941303;28;96825;-66
2020/12/24 08:26:14;;;;;;;81.90;39.35;;;;;;;10.05;83.21;100368.28;4969242;28;98522;-65
2020/12/24 08:28:57;;;;;;;87.13;38.08;;;;;;;10.07;83.47;100368.25;4965588;28;98717;-65
2020/12/24 08:31:24;;;;;;;84.30;35.58;;;;;;;10.07;82.69;100368.25;4953610;28;97402;-64
2020/12/24 08:33:52;;;;;;;69.95;36.08;;;;;;;10.03;83.22;100371.91;4936840;28;96801;-65
2020/12/24 08:36:19;;;;;;;73.18;37.25;;;;;;;9.94;83.04;100363.56;4966392;28;98514;-63
2020/12/24 08:38:46;;;;;;;101.40;38.30;;;;;;;10.07;83.63;100358.66;4965417;28;98702;-64
2020/12/24 08:41:25;;;;;;;72.82;39.33;;;;;;;10.02;83.15;100378.03;4971342;28;97211;-63
2020/12/24 08:43:55;;;;;;;76.55;39.72;;;;;;;10.11;83.48;100374.97;4965935;28;96923;-62
2020/12/24 08:46:22;;;;;;;86.07;40.88;;;;;;;10.06;83.76;100371.75;4971686;28;98539;-66
2020/12/24 08:48:48;;;;;;;78.28;41.03;;;;;;;10.22;83.04;100381.38;4971883;28;98449;-63
2020/12/24 08:51:16;;;;;;;72.57;37.75;;;;;;;10.30;82.76;100377.63;4967354;28;96664;-67
2020/12/24 08:54:04;;;;;;;72.68;40.00;;;;;;;10.35;82.19;100376.50;4972769;28;96717;-66
2020/12/24 08:56:31;;;;;;;76.68;40.88;;;;;;;10.29;81.73;100384.59;4940696;28;98699;-67
2020/12/24 08:58:57;;;;;;;86.28;39.17;;;;;;;10.36;81.79;100378.16;4939105;28;98485;-70
2020/12/24 09:01:23;;;;;;;86.30;41.78;;;;;;;10.37;81.90;100390.28;4972958;28;96581;-70
2020/12/24 09:03:50;;;;;;;79.15;37.42;;;;;;;10.33;81.03;100386.13;4973095;28;96721;-70
2020/12/24 09:06:16;;;;;;;77.85;40.55;;;;;;;10.16;81.78;100383.44;4971702;28;98647;-70
2020/12/24 09:08:49;;;;;;;68.20;34.30;;;;;;;10.27;81.96;100398.59;4973023;28;98542;-70
2020/12/24 09:11:28;;;;;;;81.18;39.92;;;;;;;10.23;81.96;100397.88;4972293;28;96653;-72
2020/12/24 09:13:59;;;;;;;81.45;44.90;;;;;;;10.21;82.37;100391.88;4969832;28;98057;-70
2020/12/24 09:16:25;;;;;;;74.82;40.08;;;;;;;10.36;81.76;100401.63;4969780;28;98532;-72
2020/12/24 09:19:05;;;;;;;81.30;41.13;;;;;;;10.25;82.21;100403.03;4970657;28;98609;-70
2020/12/24 09:21:32;;;;;;;75.68;39.78;;;;;;;10.36;81.94;100391.19;4968330;28;97455;-75
2020/12/24 09:24:12;;;;;;;85.72;41.67;;;;;;;9.78;85.88;100380.81;4967812;28;96930;-75
2020/12/24 09:26:42;;;;;;;78.60;40.95;;;;;;;10.23;83.18;100382.25;4968381;28;98450;-73
2020/12/24 09:29:08;;;;;;;81.18;40.22;;;;;;;10.33;82.37;100369.66;4962714;28;98676;-76
2020/12/24 09:31:35;;;;;;;78.70;40.03;;;;;;;10.26;82.54;100381.28;4965740;28;98296;-75
2020/12/24 09:34:01;;;;;;;76.40;40.38;;;;;;;10.43;81.93;100378.72;4970106;28;96862;-75
2020/12/24 09:36:28;;;;;;;85.88;41.22;;;;;;;10.48;81.56;100372.38;4968135;28;98563;-75
2020/12/24 09:38:54;;;;;;;74.45;39.92;;;;;;;10.30;82.70;100378.47;4966736;28;98491;-75
2020/12/24 09:41:20;;;;;;;79.18;40.97;;;;;;;10.48;81.65;100364.56;4970494;28;96652;-75
2020/12/24 09:43:47;;;;;;;72.47;41.75;;;;;;;10.51;81.67;100367.94;4969391;28;96721;-75
2020/12/24 09:46:14;;;;;;;71.50;39.10;;;;;;;10.53;81.86;100359.13;4968240;28;98591;-75
2020/12/24 09:48:41;;;;;;;88.45;41.92;;;;;;;10.47;81.80;100368.06;4967153;28;98553;-75
2020/12/24 09:51:08;;;;;;;76.53;41.58;;;;;;;10.48;81.51;100366.31;4967414;28;97680;-76
2020/12/24 09:53:34;;;;;;;79.07;40.20;;;;;;;10.49;81.88;100368.88;4967370;28;96539;-75
2020/12/24 09:56:00;;;;;;;89.05;41.88;;;;;;;10.62;81.20;100360.47;4970699;28;98605;-71
2020/12/24 09:58:27;;;;;;;76.00;39.67;;;;;;;10.59;81.09;100361.44;4972270;28;98393;-69
2020/12/24 10:00:54;;;;;;;68.28;40.88;;;;;;;10.45;80.77;100343.03;4971294;28;96769;-71
2020/12/24 10:03:20;;;;;;;67.18;38.38;;;;;;;10.53;81.17;100345.25;4970987;28;96701;-70
2020/12/24 10:05:46;;;;;;;63.50;38.88;;;;;;;10.58;80.88;100353.69;4970391;28;98848;-70
2020/12/24 10:08:14;;;;;;;74.32;36.92;;;;;;;10.61;80.80;100328.34;4971130;28;98392;-70
2020/12/24 10:10:42;;;;;;;68.50;36.30;;;;;;;10.62;80.90;100313.53;4972004;28;96561;-72
2020/12/24 10:13:09;;;;;;;63.92;35.50;;;;;;;10.64;80.92;100322.09;4954571;28;96718;-65
2020/12/24 10:15:35;;;;;;;71.25;39.30;;;;;;;10.71;80.97;100326.13;4970958;28;98527;-66
2020/12/24 10:18:01;;;;;;;61.42;34.78;;;;;;;10.76;80.21;100313.72;4971374;28;98596;-70
2020/12/24 10:20:28;;;;;;;72.35;38.60;;;;;;;10.82;79.51;100317.78;4971152;28;96997;-74
2020/12/24 10:22:55;;;;;;;79.80;40.00;;;;;;;10.51;79.97;100301.03;4953787;28;97162;-77
2020/12/24 10:25:21;;;;;;;86.18;41.17;;;;;;;10.59;80.15;100293.66;4971267;28;98531;-71
2020/12/24 10:27:47;;;;;;;93.35;45.33;;;;;;;10.65;80.24;100288.16;4971180;28;98636;-70
2020/12/24 10:30:14;;;;;;;88.80;43.10;;;;;;;10.68;80.78;100284.53;4970753;28;96741;-71
2020/12/24 10:32:40;;;;;;;88.85;43.95;;;;;;;10.57;80.84;100284.25;4971246;28;96702;-70
2020/12/24 10:35:07;;;;;;;81.78;40.63;;;;;;;10.55;81.25;100270.44;4968096;28;98803;-71
2020/12/24 10:37:34;;;;;;;81.60;40.28;;;;;;;10.46;81.46;100249.13;4969581;28;98645;-71
2020/12/24 10:40:01;;;;;;;75.97;39.85;;;;;;;10.70;80.20;100238.38;4970380;28;97119;-70
2020/12/24 10:42:27;;;;;;;70.43;36.45;;;;;;;10.68;80.32;100235.00;4949434;28;96840;-70
2020/12/24 10:44:53;;;;;;;90.75;38.15;;;;;;;10.58;79.92;100236.41;4966601;28;98551;-69
2020/12/24 10:47:20;;;;;;;82.38;39.75;;;;;;;10.44;81.20;100221.47;4954277;28;98510;-69
2020/12/24 10:49:46;;;;;;;78.60;36.72;;;;;;;10.55;80.65;100226.13;4964337;28;96872;-71
2020/12/24 10:52:13;;;;;;;72.22;36.15;;;;;;;10.72;79.36;100226.97;4968321;28;97891;-74
2020/12/24 10:54:39;;;;;;;71.28;37.75;;;;;;;10.68;79.57;100211.56;4964943;28;98561;-75
2020/12/24 10:57:05;;;;;;;64.40;34.63;;;;;;;10.62;80.01;100215.31;4968874;28;98615;-71
2020/12/24 10:59:32;;;;;;;68.47;38.55;;;;;;;10.67;79.83;100197.69;4968758;28;96696;-73
2020/12/24 11:01:59;;;;;;;69.25;38.83;;;;;;;10.64;80.28;100210.00;4950378;28;96772;-74
2020/12/24 11:04:26;;;;;;;73.78;39.47;;;;;;;10.77;80.31;100202.44;4964075;28;98506;-74
2020/12/24 11:06:52;;;;;;;66.60;33.35;;;;;;;10.81;79.46;100188.28;4967730;28;98658;-71
2020/12/24 11:09:18;;;;;;;64.18;36.30;;;;;;;10.56;79.75;100186.13;4968365;28;96728;-68
2020/12/24 11:11:45;;;;;;;65.75;35.17;;;;;;;10.67;79.87;100176.81;4971120;28;97837;-69
2020/12/24 11:14:11;;;;;;;75.28;39.78;;;;;;;10.58;80.39;100156.44;4951232;28;98603;-71
2020/12/24 11:16:38;;;;;;;73.97;37.42;;;;;;;10.64;79.98;100155.28;4968248;28;97652;-71